createdAt,value
2023-01-30T00:01:05.447Z,1.70
2023-01-30T00:03:32.835Z,1.60
2023-01-30T00:06:00.128Z,1.60
2023-01-30T00:08:27.114Z,1.60
2023-01-30T00:10:54.570Z,1.60
2023-01-30T00:13:21.646Z,1.50
2023-01-30T00:15:49.143Z,1.60
2023-01-30T00:18:16.267Z,1.50
2023-01-30T00:20:43.528Z,1.50
2023-01-30T00:23:10.551Z,1.50
2023-01-30T00:25:38.112Z,1.50
2023-01-30T00:28:05.151Z,1.50
2023-01-30T00:30:32.424Z,1.50
2023-01-30T00:33:00.066Z,1.50
2023-01-30T00:35:28.540Z,1.50
2023-01-30T00:37:59.456Z,1.50
2023-01-30T00:40:29.313Z,1.40
2023-01-30T00:43:15.085Z,1.40
2023-01-30T00:46:04.203Z,1.40
2023-01-30T00:48:32.488Z,1.40
2023-01-30T00:50:59.882Z,1.40
2023-01-30T00:53:29.049Z,1.50
2023-01-30T00:55:56.869Z,1.50
2023-01-30T00:58:24.777Z,1.50
2023-01-30T01:00:52.994Z,1.50
2023-01-30T01:03:20.275Z,1.50
2023-01-30T01:05:48.287Z,1.50
2023-01-30T01:08:15.574Z,1.50
2023-01-30T01:10:43.250Z,1.50
2023-01-30T01:13:10.643Z,1.50
2023-01-30T01:15:38.213Z,1.50
2023-01-30T01:18:06.504Z,1.50
2023-01-30T01:20:34.315Z,1.50
2023-01-30T01:23:03.561Z,1.50
2023-01-30T01:25:31.183Z,1.50
2023-01-30T01:27:58.060Z,1.50
2023-01-30T01:30:25.315Z,1.50
2023-01-30T01:32:52.347Z,1.50
2023-01-30T01:35:20.057Z,1.50
2023-01-30T01:37:47.361Z,1.50
2023-01-30T01:40:39.891Z,1.40
2023-01-30T01:43:24.424Z,1.40
2023-01-30T01:46:14.113Z,1.40
2023-01-30T01:48:52.440Z,1.40
2023-01-30T01:51:33.689Z,1.40
2023-01-30T01:54:05.219Z,1.30
2023-01-30T01:56:39.062Z,1.30
2023-01-30T01:59:16.602Z,1.30
2023-01-30T02:01:47.315Z,1.30
2023-01-30T02:04:34.716Z,1.20
2023-01-30T02:07:02.542Z,1.20
2023-01-30T02:09:30.058Z,1.20
2023-01-30T02:12:03.449Z,1.10
2023-01-30T02:14:36.076Z,1.20
2023-01-30T02:17:03.498Z,1.10
2023-01-30T02:19:54.842Z,1.00
2023-01-30T02:23:08.935Z,1.00
2023-01-30T02:25:57.556Z,1.00
2023-01-30T02:29:04.165Z,0.90
2023-01-30T02:32:02.407Z,0.90
2023-01-30T02:34:45.710Z,0.80
2023-01-30T02:37:54.893Z,0.80
2023-01-30T02:40:49.679Z,0.70
2023-01-30T02:43:46.538Z,0.60
2023-01-30T02:46:34.429Z,0.50
2023-01-30T02:49:40.910Z,0.40
2023-01-30T02:52:12.274Z,0.30
2023-01-30T02:54:39.622Z,0.20
2023-01-30T02:57:23.732Z,0.20
2023-01-30T03:00:01.056Z,0.20
2023-01-30T03:03:27.162Z,0.10
2023-01-30T03:06:06.620Z,0.20
2023-01-30T03:08:44.057Z,0.20
2023-01-30T03:11:12.520Z,0.10
2023-01-30T03:14:09.411Z,0.20
2023-01-30T03:16:41.473Z,0.20
2023-01-30T03:19:13.713Z,0.20
2023-01-30T03:21:45.406Z,0.20
2023-01-30T03:24:14.704Z,0.20
2023-01-30T03:26:54.491Z,0.30
2023-01-30T03:29:22.247Z,0.30
2023-01-30T03:31:50.154Z,0.30
2023-01-30T03:34:17.555Z,0.30
2023-01-30T03:36:44.879Z,0.30
2023-01-30T03:39:12.642Z,0.30
2023-01-30T03:41:40.526Z,0.30
2023-01-30T03:44:08.600Z,0.40
2023-01-30T03:46:35.724Z,0.40
2023-01-30T03:49:03.227Z,0.40
2023-01-30T03:51:30.283Z,0.40
2023-01-30T03:53:57.786Z,0.40
2023-01-30T03:56:24.762Z,0.40
2023-01-30T03:58:52.307Z,0.40
2023-01-30T04:01:28.421Z,0.40
2023-01-30T04:03:55.894Z,0.30
2023-01-30T04:06:22.961Z,0.40
2023-01-30T04:08:55.780Z,0.40
2023-01-30T04:11:35.271Z,0.30
2023-01-30T04:14:02.770Z,0.40
2023-01-30T04:16:29.885Z,0.40
2023-01-30T04:19:16.283Z,0.40
2023-01-30T04:21:43.666Z,0.40
2023-01-30T04:24:11.006Z,0.40
2023-01-30T04:26:38.129Z,0.40
2023-01-30T04:29:05.829Z,0.40
2023-01-30T04:31:33.677Z,0.30
2023-01-30T04:34:17.219Z,0.40
2023-01-30T04:36:44.367Z,0.40
2023-01-30T04:39:12.886Z,0.30
2023-01-30T04:41:41.047Z,0.30
2023-01-30T04:44:08.393Z,0.30
2023-01-30T04:46:47.666Z,0.30
2023-01-30T04:49:15.908Z,0.30
2023-01-30T04:51:43.856Z,0.30
2023-01-30T04:54:11.468Z,0.30
2023-01-30T04:56:38.463Z,0.30
2023-01-30T04:59:06.667Z,0.30
2023-01-30T05:01:40.359Z,0.30
2023-01-30T05:04:08.599Z,0.30
2023-01-30T05:06:36.675Z,0.20
2023-01-30T05:09:04.977Z,0.30
2023-01-30T05:11:34.616Z,0.30
2023-01-30T05:14:02.065Z,0.30
2023-01-30T05:16:29.718Z,0.40
2023-01-30T05:18:57.206Z,0.40
2023-01-30T05:21:28.573Z,0.40
2023-01-30T05:23:57.566Z,0.40
2023-01-30T05:26:25.298Z,0.40
2023-01-30T05:28:57.273Z,0.40
2023-01-30T05:31:24.911Z,0.40
2023-01-30T05:33:53.252Z,0.40
2023-01-30T05:36:23.151Z,0.30
2023-01-30T05:38:50.477Z,0.40
2023-01-30T05:41:18.671Z,0.30
2023-01-30T05:43:50.858Z,0.40
2023-01-30T05:46:18.727Z,0.40
2023-01-30T05:48:46.527Z,0.40
2023-01-30T05:51:26.027Z,0.40
2023-01-30T05:53:53.731Z,0.40
2023-01-30T05:56:21.366Z,0.40
2023-01-30T05:58:56.330Z,0.40
2023-01-30T06:01:23.786Z,0.40
2023-01-30T06:03:51.057Z,0.40
2023-01-30T06:06:19.500Z,0.40
2023-01-30T06:08:47.282Z,0.40
2023-01-30T06:11:17.421Z,0.40
2023-01-30T06:13:45.006Z,0.40
2023-01-30T06:16:14.923Z,0.40
2023-01-30T06:18:42.855Z,0.40
2023-01-30T06:21:10.132Z,0.40
2023-01-30T06:23:37.421Z,0.40
2023-01-30T06:26:07.402Z,0.40
2023-01-30T06:28:37.566Z,0.40
2023-01-30T06:31:07.790Z,0.50
2023-01-30T06:33:35.582Z,0.50
2023-01-30T06:36:03.063Z,0.50
2023-01-30T06:38:30.520Z,0.50
2023-01-30T06:40:57.557Z,0.50
2023-01-30T06:43:24.978Z,0.50
2023-01-30T06:45:51.927Z,0.50
2023-01-30T06:48:19.635Z,0.50
2023-01-30T06:50:48.225Z,0.50
2023-01-30T06:53:15.549Z,0.50
2023-01-30T06:55:42.691Z,0.50
2023-01-30T06:58:12.703Z,0.50
2023-01-30T07:00:42.338Z,0.50
2023-01-30T07:03:16.181Z,0.50
2023-01-30T07:05:46.659Z,0.50
2023-01-30T07:08:15.869Z,0.50
2023-01-30T07:10:44.452Z,0.50
2023-01-30T07:13:12.292Z,0.50
2023-01-30T07:15:39.443Z,0.50
2023-01-30T07:18:06.815Z,0.50
2023-01-30T07:20:34.529Z,0.50
2023-01-30T07:23:04.625Z,0.50
2023-01-30T07:25:31.569Z,0.60
2023-01-30T07:28:02.219Z,0.60
2023-01-30T07:30:32.741Z,0.60
2023-01-30T07:33:00.911Z,0.60
2023-01-30T07:35:32.147Z,0.60
2023-01-30T07:37:59.604Z,0.60
2023-01-30T07:40:27.195Z,0.60
2023-01-30T07:43:11.300Z,0.60
2023-01-30T07:45:45.797Z,0.60
2023-01-30T07:48:17.484Z,0.60
2023-01-30T07:50:46.053Z,0.70
2023-01-30T07:53:18.455Z,0.70
2023-01-30T07:55:45.827Z,0.70
2023-01-30T07:58:18.082Z,0.80
2023-01-30T08:00:45.421Z,0.80
2023-01-30T08:03:15.529Z,0.90
2023-01-30T08:05:45.130Z,0.90
2023-01-30T08:08:12.341Z,0.80
2023-01-30T08:10:39.262Z,0.80
2023-01-30T08:13:06.769Z,0.90
2023-01-30T08:15:33.746Z,0.90
2023-01-30T08:18:02.305Z,0.90
2023-01-30T08:20:29.484Z,1.00
2023-01-30T08:22:58.867Z,1.00
2023-01-30T08:25:26.112Z,1.10
2023-01-30T08:27:53.890Z,1.10
2023-01-30T08:30:22.592Z,1.10
2023-01-30T08:32:50.104Z,1.10
2023-01-30T08:35:17.660Z,1.20
2023-01-30T08:37:44.994Z,1.20
2023-01-30T08:40:12.803Z,1.20
2023-01-30T08:42:40.342Z,1.20
2023-01-30T08:45:08.193Z,1.20
2023-01-30T08:47:35.639Z,1.20
2023-01-30T08:50:04.514Z,1.20
2023-01-30T08:52:34.779Z,1.20
2023-01-30T08:55:03.359Z,1.20
2023-01-30T08:57:32.537Z,1.20
2023-01-30T08:59:59.643Z,1.20
2023-01-30T09:02:27.009Z,1.20
2023-01-30T09:04:54.144Z,1.20
2023-01-30T09:07:21.321Z,1.20
2023-01-30T09:09:48.649Z,1.20
2023-01-30T09:12:16.122Z,1.20
2023-01-30T09:14:43.093Z,1.30
2023-01-30T09:17:10.258Z,1.20
2023-01-30T09:19:37.491Z,1.30
2023-01-30T09:22:07.588Z,1.30
2023-01-30T09:24:35.949Z,1.30
2023-01-30T09:27:03.707Z,1.30
2023-01-30T09:29:30.973Z,1.30
2023-01-30T09:31:58.675Z,1.30
2023-01-30T09:34:28.640Z,1.30
2023-01-30T09:37:04.662Z,1.40
2023-01-30T09:39:32.118Z,1.40
2023-01-30T09:42:14.448Z,1.40
2023-01-30T09:45:40.045Z,1.40
2023-01-30T09:48:20.022Z,1.50
2023-01-30T09:51:17.814Z,1.50
2023-01-30T09:54:24.520Z,1.50
2023-01-30T09:57:23.154Z,1.50
2023-01-30T10:00:12.623Z,1.50
2023-01-30T10:03:15.461Z,1.50
2023-01-30T10:05:52.955Z,1.50
2023-01-30T10:08:59.941Z,1.60
2023-01-30T10:12:06.022Z,1.60
2023-01-30T10:14:49.565Z,1.60
2023-01-30T10:17:47.234Z,1.60
2023-01-30T10:21:12.635Z,1.60
2023-01-30T10:24:06.813Z,1.60
2023-01-30T10:26:34.451Z,1.60
2023-01-30T10:29:36.883Z,1.60
2023-01-30T10:32:11.480Z,1.70
2023-01-30T10:34:47.957Z,1.60
2023-01-30T10:37:40.706Z,1.70
2023-01-30T10:40:49.267Z,1.80
2023-01-30T10:43:27.703Z,1.80
2023-01-30T10:46:21.955Z,1.80
2023-01-30T10:49:04.872Z,1.80
2023-01-30T10:52:12.188Z,1.90
2023-01-30T10:54:56.123Z,1.90
2023-01-30T10:58:06.015Z,1.90
2023-01-30T11:01:01.133Z,1.90
2023-01-30T11:04:03.188Z,1.90
2023-01-30T11:06:33.564Z,2.00
2023-01-30T11:09:00.880Z,2.00
2023-01-30T11:11:51.291Z,2.00
2023-01-30T11:14:18.852Z,2.10
2023-01-30T11:16:57.699Z,2.20
2023-01-30T11:19:37.208Z,2.20
2023-01-30T11:22:06.510Z,2.20
2023-01-30T11:24:42.595Z,2.20
2023-01-30T11:27:32.609Z,2.20
2023-01-30T11:30:17.028Z,2.20
2023-01-30T11:32:48.832Z,2.20
2023-01-30T11:35:29.867Z,2.30
2023-01-30T11:38:23.178Z,2.20
2023-01-30T11:41:03.900Z,2.20
2023-01-30T11:43:33.693Z,2.20
2023-01-30T11:46:02.217Z,2.20
2023-01-30T11:49:08.659Z,2.20
2023-01-30T11:51:24.115Z,2.20
2023-01-30T11:54:05.987Z,2.30
2023-01-30T11:56:42.821Z,2.30
2023-01-30T11:59:36.962Z,2.30
2023-01-30T12:02:15.034Z,2.20
2023-01-30T12:04:48.217Z,2.20
2023-01-30T12:07:24.911Z,2.20
2023-01-30T12:09:54.303Z,2.20
2023-01-30T12:12:49.243Z,2.20
2023-01-30T12:15:25.185Z,2.20
2023-01-30T12:18:11.301Z,2.20
2023-01-30T12:20:52.843Z,2.30
2023-01-30T12:23:40.885Z,2.20
2023-01-30T12:26:24.684Z,2.20
2023-01-30T12:29:24.841Z,2.20
2023-01-30T12:32:03.575Z,2.20
2023-01-30T12:34:31.362Z,2.20
2023-01-30T12:37:23.251Z,2.30
2023-01-30T12:40:20.141Z,2.20
2023-01-30T12:43:23.179Z,2.30
2023-01-30T12:46:04.539Z,2.20
2023-01-30T12:49:11.549Z,2.20
2023-01-30T12:52:11.051Z,2.20
2023-01-30T12:55:02.630Z,2.20
2023-01-30T12:57:44.962Z,2.20
2023-01-30T13:00:14.739Z,2.30
2023-01-30T13:03:06.014Z,2.30
2023-01-30T13:05:53.899Z,2.30
2023-01-30T13:08:55.238Z,2.40
2023-01-30T13:11:41.635Z,2.30
2023-01-30T13:14:26.418Z,2.40
2023-01-30T13:17:10.019Z,2.40
2023-01-30T13:19:58.036Z,2.40
2023-01-30T13:22:41.358Z,2.40
2023-01-30T13:25:17.811Z,2.40
2023-01-30T13:27:56.051Z,2.40
2023-01-30T13:30:27.595Z,2.40
2023-01-30T13:33:08.680Z,2.40
2023-01-30T13:35:52.516Z,2.40
2023-01-30T13:38:29.790Z,2.50
2023-01-30T13:41:00.777Z,2.50
2023-01-30T13:43:44.530Z,2.50
2023-01-30T13:46:24.429Z,2.50
2023-01-30T13:49:24.786Z,2.50
2023-01-30T13:52:10.523Z,2.50
2023-01-30T13:55:14.568Z,2.50
2023-01-30T13:57:56.642Z,2.50
2023-01-30T14:00:34.193Z,2.40
2023-01-30T14:03:04.402Z,2.40
2023-01-30T14:06:00.963Z,2.40
2023-01-30T14:08:38.587Z,2.40
2023-01-30T14:11:29.105Z,2.50
2023-01-30T14:14:30.570Z,2.40
2023-01-30T14:17:15.378Z,2.40
2023-01-30T14:20:05.073Z,2.40
2023-01-30T14:22:47.666Z,2.50
2023-01-30T14:25:30.290Z,2.50
2023-01-30T14:28:00.157Z,2.60
2023-01-30T14:30:48.809Z,2.60
2023-01-30T14:33:21.705Z,2.60
2023-01-30T14:36:04.410Z,2.60
2023-01-30T14:38:38.406Z,2.60
2023-01-30T14:41:06.825Z,2.60
2023-01-30T14:43:42.372Z,2.60
2023-01-30T14:46:15.549Z,2.60
2023-01-30T14:48:54.071Z,2.60
2023-01-30T14:51:39.973Z,2.70
2023-01-30T14:54:13.901Z,2.70
2023-01-30T14:56:54.131Z,2.60
2023-01-30T14:59:37.872Z,2.60
2023-01-30T15:02:14.376Z,2.50
2023-01-30T15:04:58.240Z,2.50
2023-01-30T15:07:39.169Z,2.60
2023-01-30T15:10:41.418Z,2.60
2023-01-30T15:13:45.317Z,2.60
2023-01-30T15:17:05.592Z,2.60
2023-01-30T15:20:13.230Z,2.60
2023-01-30T15:23:10.794Z,2.60
2023-01-30T15:26:24.926Z,2.60
2023-01-30T15:29:35.004Z,2.60
2023-01-30T15:32:15.720Z,2.60
2023-01-30T15:35:18.836Z,2.60
2023-01-30T15:37:46.384Z,2.60
2023-01-30T15:40:16.651Z,2.60
2023-01-30T15:43:00.649Z,2.60
2023-01-30T15:45:36.871Z,2.70
2023-01-30T15:48:26.283Z,2.70
2023-01-30T15:50:58.875Z,2.70
2023-01-30T15:53:42.402Z,2.70
2023-01-30T15:56:17.715Z,2.70
2023-01-30T15:58:46.119Z,2.70
2023-01-30T16:01:20.863Z,2.70
2023-01-30T16:03:53.381Z,2.70
2023-01-30T16:06:34.634Z,2.70
2023-01-30T16:09:18.319Z,2.70
2023-01-30T16:11:45.341Z,2.70
2023-01-30T16:14:16.582Z,2.70
2023-01-30T16:17:06.899Z,2.70
2023-01-30T16:19:38.910Z,2.70
2023-01-30T16:22:17.199Z,2.80
2023-01-30T16:24:49.757Z,2.70
2023-01-30T16:27:29.214Z,2.70
2023-01-30T16:30:07.608Z,2.70
2023-01-30T16:32:36.911Z,2.70
2023-01-30T16:35:27.361Z,2.70
2023-01-30T16:37:58.168Z,2.70
2023-01-30T16:40:31.841Z,2.70
2023-01-30T16:43:16.698Z,2.70
2023-01-30T16:45:52.900Z,2.80
2023-01-30T16:48:20.153Z,2.80
2023-01-30T16:51:12.587Z,2.80
2023-01-30T16:53:51.989Z,2.80
2023-01-30T16:56:21.392Z,2.80
2023-01-30T16:58:58.778Z,2.80
2023-01-30T17:01:41.504Z,2.80
2023-01-30T17:04:20.670Z,2.80
2023-01-30T17:07:04.599Z,2.80
2023-01-30T17:09:46.025Z,2.80
2023-01-30T17:12:31.096Z,2.80
2023-01-30T17:15:13.199Z,2.80
2023-01-30T17:17:44.313Z,2.90
2023-01-30T17:20:13.654Z,2.90
2023-01-30T17:22:45.999Z,2.90
2023-01-30T17:25:31.592Z,2.90
2023-01-30T17:27:59.299Z,2.90
2023-01-30T17:30:26.308Z,3.00
2023-01-30T17:32:53.879Z,3.00
2023-01-30T17:35:21.328Z,3.00
2023-01-30T17:37:59.707Z,3.00
2023-01-30T17:40:36.904Z,3.00
2023-01-30T17:43:05.396Z,3.00
2023-01-30T17:45:32.666Z,3.10
2023-01-30T17:47:59.987Z,3.10
2023-01-30T17:50:28.510Z,3.10
2023-01-30T17:52:55.831Z,3.10
2023-01-30T17:55:23.384Z,3.10
2023-01-30T17:57:50.834Z,3.10
2023-01-30T18:00:21.000Z,3.20
2023-01-30T18:02:48.954Z,3.20
2023-01-30T18:05:16.182Z,3.20
2023-01-30T18:07:43.900Z,3.20
2023-01-30T18:10:18.495Z,3.20
2023-01-30T18:12:46.808Z,3.20
2023-01-30T18:15:15.838Z,3.20
2023-01-30T18:17:47.624Z,3.30
2023-01-30T18:20:19.866Z,3.30
2023-01-30T18:22:47.329Z,3.30
2023-01-30T18:25:14.978Z,3.30
2023-01-30T18:27:44.327Z,3.30
2023-01-30T18:30:16.880Z,3.30
2023-01-30T18:32:53.017Z,3.30
2023-01-30T18:35:23.009Z,3.30
2023-01-30T18:37:50.868Z,3.30
2023-01-30T18:40:20.161Z,3.30
2023-01-30T18:42:48.008Z,3.30
2023-01-30T18:45:15.276Z,3.30
2023-01-30T18:47:42.621Z,3.40
2023-01-30T18:50:10.454Z,3.30
2023-01-30T18:52:37.727Z,3.30
2023-01-30T18:55:06.409Z,3.30
2023-01-30T18:57:33.675Z,3.30
2023-01-30T19:00:00.591Z,3.40
2023-01-30T19:02:28.762Z,3.40
2023-01-30T19:04:55.810Z,3.40
2023-01-30T19:07:23.178Z,3.40
2023-01-30T19:09:50.086Z,3.40
2023-01-30T19:12:36.207Z,3.50
2023-01-30T19:15:03.688Z,3.50
2023-01-30T19:17:31.129Z,3.50
2023-01-30T19:20:01.100Z,3.40
2023-01-30T19:22:29.163Z,3.50
2023-01-30T19:24:56.079Z,3.50
2023-01-30T19:27:23.631Z,3.50
2023-01-30T19:29:50.654Z,3.50
2023-01-30T19:32:17.804Z,3.60
2023-01-30T19:34:45.238Z,3.60
2023-01-30T19:37:12.532Z,3.50
2023-01-30T19:39:39.428Z,3.60
2023-01-30T19:42:07.083Z,3.60
2023-01-30T19:44:34.022Z,3.60
2023-01-30T19:47:03.320Z,3.60
2023-01-30T19:49:30.360Z,3.60
2023-01-30T19:52:02.252Z,3.60
2023-01-30T19:54:29.515Z,3.60
2023-01-30T19:56:56.820Z,3.70
2023-01-30T19:59:27.120Z,3.60
2023-01-30T20:01:54.433Z,3.60
2023-01-30T20:04:21.507Z,3.60
2023-01-30T20:07:01.067Z,3.60
2023-01-30T20:09:29.324Z,3.60
2023-01-30T20:11:56.591Z,3.70
2023-01-30T20:14:23.530Z,3.70
2023-01-30T20:16:51.043Z,3.70
2023-01-30T20:19:18.041Z,3.70
2023-01-30T20:21:45.560Z,3.60
2023-01-30T20:24:15.396Z,3.70
2023-01-30T20:26:47.078Z,3.70
2023-01-30T20:29:17.421Z,3.70
2023-01-30T20:31:45.516Z,3.70
2023-01-30T20:34:15.125Z,3.60
2023-01-30T20:36:42.513Z,3.60
2023-01-30T20:39:11.435Z,3.60
2023-01-30T20:41:38.820Z,3.60
2023-01-30T20:44:11.003Z,3.60
2023-01-30T20:46:46.762Z,3.60
2023-01-30T20:49:20.294Z,3.70
2023-01-30T20:51:51.480Z,3.60
2023-01-30T20:54:21.490Z,3.60
2023-01-30T20:56:52.184Z,3.60
2023-01-30T20:59:24.253Z,3.60
2023-01-30T21:01:52.876Z,3.60
2023-01-30T21:04:22.063Z,3.60
2023-01-30T21:06:49.703Z,3.60
2023-01-30T21:09:20.819Z,3.60
2023-01-30T21:11:51.005Z,3.60
2023-01-30T21:14:18.599Z,3.60
2023-01-30T21:16:46.485Z,3.60
2023-01-30T21:19:17.125Z,3.60
2023-01-30T21:21:52.589Z,3.60
2023-01-30T21:24:27.251Z,3.60
2023-01-30T21:26:56.129Z,3.50
2023-01-30T21:29:26.448Z,3.60
2023-01-30T21:31:55.602Z,3.60
2023-01-30T21:34:23.176Z,3.60
2023-01-30T21:37:09.210Z,3.60
2023-01-30T21:39:54.739Z,3.60
2023-01-30T21:42:41.148Z,3.60
2023-01-30T21:45:08.795Z,3.60
2023-01-30T21:47:36.873Z,3.60
2023-01-30T21:50:05.858Z,3.60
2023-01-30T21:52:33.354Z,3.60
2023-01-30T21:55:00.722Z,3.60
2023-01-30T21:57:29.494Z,3.60
2023-01-30T21:59:56.634Z,3.50
2023-01-30T22:02:23.972Z,3.50
2023-01-30T22:04:51.490Z,3.60
2023-01-30T22:07:21.295Z,3.50
2023-01-30T22:09:49.003Z,3.50
2023-01-30T22:12:16.812Z,3.50
2023-01-30T22:14:44.143Z,3.50
2023-01-30T22:17:11.470Z,3.50
2023-01-30T22:19:39.751Z,3.50
2023-01-30T22:22:06.922Z,3.50
2023-01-30T22:24:34.020Z,3.60
2023-01-30T22:27:02.338Z,3.60
2023-01-30T22:29:29.433Z,3.50
2023-01-30T22:31:56.814Z,3.60
2023-01-30T22:34:24.061Z,3.50
2023-01-30T22:36:51.783Z,3.50
2023-01-30T22:39:19.883Z,3.60
2023-01-30T22:41:47.156Z,3.60
2023-01-30T22:44:14.139Z,3.50
2023-01-30T22:46:41.841Z,3.60
2023-01-30T22:49:10.119Z,3.60
2023-01-30T22:51:40.878Z,3.60
2023-01-30T22:54:15.723Z,3.50
2023-01-30T22:56:46.933Z,3.50
2023-01-30T22:59:14.449Z,3.50
2023-01-30T23:01:48.201Z,3.50
2023-01-30T23:04:17.553Z,3.50
2023-01-30T23:06:45.688Z,3.50
2023-01-30T23:09:17.605Z,3.50
2023-01-30T23:12:11.068Z,3.50
2023-01-30T23:14:39.365Z,3.50
2023-01-30T23:17:25.866Z,3.50
2023-01-30T23:19:54.748Z,3.50
2023-01-30T23:22:22.339Z,3.40
2023-01-30T23:24:51.015Z,3.40
2023-01-30T23:27:19.323Z,3.40
2023-01-30T23:29:46.724Z,3.30
2023-01-30T23:32:15.029Z,3.30
2023-01-30T23:34:42.280Z,3.30
2023-01-30T23:37:09.641Z,3.20
2023-01-30T23:39:36.690Z,3.20
2023-01-30T23:42:04.083Z,3.20
2023-01-30T23:44:31.048Z,3.10
2023-01-30T23:46:58.299Z,3.10
2023-01-30T23:49:25.651Z,3.10
2023-01-30T23:51:52.880Z,3.10
2023-01-30T23:54:19.835Z,3.10
2023-01-30T23:56:47.531Z,3.10
2023-01-30T23:59:14.590Z,3.10
